createdAt,value
2018-01-08T00:00:57.547Z,9.60
2018-01-08T00:03:25.875Z,9.60
2018-01-08T00:05:53.454Z,9.60
2018-01-08T00:08:20.980Z,9.60
2018-01-08T00:10:48.501Z,9.60
2018-01-08T00:13:16.058Z,9.60
2018-01-08T00:15:44.520Z,9.70
2018-01-08T00:18:11.986Z,9.70
2018-01-08T00:20:39.566Z,9.70
2018-01-08T00:23:07.098Z,9.60
2018-01-08T00:25:34.629Z,9.50
2018-01-08T00:28:02.202Z,9.50
2018-01-08T00:30:29.728Z,9.60
2018-01-08T00:32:57.291Z,9.50
2018-01-08T00:35:24.810Z,9.50
2018-01-08T00:37:52.287Z,9.50
2018-01-08T00:40:20.630Z,9.50
2018-01-08T00:42:48.198Z,9.50
2018-01-08T00:45:16.441Z,9.50
2018-01-08T00:47:43.995Z,9.50
2018-01-08T00:50:11.525Z,9.40
2018-01-08T00:52:39.014Z,9.40
2018-01-08T00:55:06.546Z,9.40
2018-01-08T00:57:34.133Z,9.40
2018-01-08T01:00:01.617Z,9.40
2018-01-08T01:02:29.178Z,9.30
2018-01-08T01:04:56.702Z,9.40
2018-01-08T01:07:24.200Z,9.30
2018-01-08T01:09:51.729Z,9.30
2018-01-08T01:12:19.294Z,9.40
2018-01-08T01:14:46.873Z,9.30
2018-01-08T01:17:14.567Z,9.40
2018-01-08T01:19:42.218Z,9.30
2018-01-08T01:22:09.711Z,9.40
2018-01-08T01:24:37.185Z,9.30
2018-01-08T01:27:04.787Z,9.20
2018-01-08T01:29:32.271Z,9.20
2018-01-08T01:31:59.773Z,9.20
2018-01-08T01:34:27.342Z,9.20
2018-01-08T01:36:54.785Z,9.20
2018-01-08T01:39:22.396Z,9.20
2018-01-08T01:41:50.616Z,9.30
2018-01-08T01:44:18.138Z,9.30
2018-01-08T01:46:46.427Z,9.40
2018-01-08T01:49:20.487Z,9.40
2018-01-08T01:51:48.221Z,9.40
2018-01-08T01:54:15.765Z,9.40
2018-01-08T01:56:43.285Z,9.20
2018-01-08T01:59:10.811Z,9.20
2018-01-08T02:01:38.273Z,9.20
2018-01-08T02:04:05.829Z,9.20
2018-01-08T02:06:33.351Z,9.20
2018-01-08T02:09:00.895Z,9.10
2018-01-08T02:11:29.213Z,9.20
2018-01-08T02:13:56.833Z,9.10
2018-01-08T02:16:25.135Z,9.10
2018-01-08T02:18:52.808Z,9.10
2018-01-08T02:21:20.395Z,9.10
2018-01-08T02:23:47.978Z,9.20
2018-01-08T02:26:15.508Z,9.10
2018-01-08T02:28:43.017Z,9.20
2018-01-08T02:31:11.338Z,9.10
2018-01-08T02:33:38.871Z,9.10
2018-01-08T02:36:06.432Z,9.10
2018-01-08T02:38:33.938Z,9.10
2018-01-08T02:41:01.457Z,9.00
2018-01-08T02:43:28.988Z,9.10
2018-01-08T02:45:56.591Z,9.10
2018-01-08T02:48:24.058Z,9.10
2018-01-08T02:50:51.613Z,9.10
2018-01-08T02:53:19.123Z,9.10
2018-01-08T02:55:46.668Z,9.10
2018-01-08T02:58:14.966Z,9.00
2018-01-08T03:00:43.203Z,8.90
2018-01-08T03:03:10.753Z,8.90
2018-01-08T03:05:38.333Z,8.80
2018-01-08T03:08:05.798Z,8.80
2018-01-08T03:10:33.323Z,8.80
2018-01-08T03:13:00.902Z,8.90
2018-01-08T03:15:28.453Z,9.00
2018-01-08T03:17:56.044Z,8.90
2018-01-08T03:20:24.371Z,8.80
2018-01-08T03:22:52.698Z,8.80
2018-01-08T03:25:20.269Z,8.80
2018-01-08T03:27:48.586Z,8.70
2018-01-08T03:30:16.150Z,8.70
2018-01-08T03:32:43.709Z,8.70
2018-01-08T03:35:11.174Z,8.80
2018-01-08T03:37:38.714Z,8.80
2018-01-08T03:40:06.280Z,8.80
2018-01-08T03:42:34.037Z,8.90
2018-01-08T03:45:01.605Z,8.90
2018-01-08T03:47:29.166Z,9.00
2018-01-08T03:49:56.812Z,9.00
2018-01-08T03:52:24.336Z,8.90
2018-01-08T03:54:52.684Z,9.00
2018-01-08T03:57:20.228Z,9.00
2018-01-08T03:59:47.841Z,9.00
2018-01-08T04:02:15.373Z,9.00
2018-01-08T04:04:42.974Z,9.00
2018-01-08T04:07:10.495Z,9.00
2018-01-08T04:09:38.010Z,8.90
2018-01-08T04:12:05.454Z,8.90
2018-01-08T04:14:33.035Z,8.80
2018-01-08T04:17:00.582Z,8.70
2018-01-08T04:19:28.115Z,8.70
2018-01-08T04:21:55.673Z,8.80
2018-01-08T04:24:23.998Z,8.80
2018-01-08T04:26:51.498Z,8.80
2018-01-08T04:29:19.036Z,8.90
2018-01-08T04:31:46.576Z,8.90
2018-01-08T04:34:14.151Z,8.90
2018-01-08T04:36:41.702Z,9.00
2018-01-08T04:39:09.227Z,9.10
2018-01-08T04:41:36.717Z,9.00
2018-01-08T04:44:04.259Z,9.00
2018-01-08T04:46:31.760Z,9.00
2018-01-08T04:48:59.332Z,9.00
2018-01-08T04:51:26.900Z,9.00
2018-01-08T04:53:54.460Z,9.00
2018-01-08T04:56:22.788Z,8.80
2018-01-08T04:58:50.310Z,8.80
2018-01-08T05:01:17.875Z,8.80
2018-01-08T05:03:46.194Z,8.80
2018-01-08T05:06:13.705Z,8.80
2018-01-08T05:08:41.242Z,8.80
2018-01-08T05:11:09.570Z,8.80
2018-01-08T05:13:37.102Z,8.80
2018-01-08T05:16:04.671Z,8.80
2018-01-08T05:18:32.242Z,8.80
2018-01-08T05:20:59.758Z,8.80
2018-01-08T05:23:28.067Z,8.90
2018-01-08T05:25:56.957Z,8.80
2018-01-08T05:28:24.506Z,8.80
2018-01-08T05:30:52.147Z,8.80
2018-01-08T05:33:20.458Z,8.80
2018-01-08T05:35:48.015Z,8.80
2018-01-08T05:38:15.538Z,8.80
2018-01-08T05:40:43.122Z,8.80
2018-01-08T05:43:11.453Z,8.70
2018-01-08T05:45:38.981Z,8.70
2018-01-08T05:48:06.571Z,8.70
2018-01-08T05:50:34.217Z,8.70
2018-01-08T05:53:01.731Z,8.60
2018-01-08T05:55:30.206Z,8.70
2018-01-08T05:57:57.905Z,8.70
2018-01-08T06:00:25.458Z,8.60
2018-01-08T06:02:53.061Z,8.50
2018-01-08T06:05:20.610Z,8.60
2018-01-08T06:07:48.141Z,8.40
2018-01-08T06:10:15.720Z,8.50
2018-01-08T06:12:43.287Z,8.60
2018-01-08T06:15:10.798Z,8.50
2018-01-08T06:17:39.084Z,8.60
2018-01-08T06:20:08.230Z,8.60
2018-01-08T06:22:35.791Z,8.60
2018-01-08T06:25:03.414Z,8.60
2018-01-08T06:27:30.934Z,8.60
2018-01-08T06:29:58.760Z,8.60
2018-01-08T06:32:26.261Z,8.60
2018-01-08T06:34:53.868Z,8.70
2018-01-08T06:37:21.408Z,8.80
2018-01-08T06:39:48.855Z,8.80
2018-01-08T06:42:17.141Z,8.80
2018-01-08T06:44:44.736Z,8.80
2018-01-08T06:47:12.272Z,8.80
2018-01-08T06:49:40.555Z,8.90
2018-01-08T06:52:08.096Z,8.80
2018-01-08T06:54:35.650Z,8.80
2018-01-08T06:57:03.996Z,8.90
2018-01-08T06:59:31.497Z,8.80
2018-01-08T07:01:58.980Z,8.90
2018-01-08T07:04:26.540Z,8.90
2018-01-08T07:06:54.312Z,9.00
2018-01-08T07:09:21.879Z,9.00
2018-01-08T07:11:49.352Z,8.90
2018-01-08T07:14:16.956Z,8.90
2018-01-08T07:16:44.575Z,8.90
2018-01-08T07:19:12.176Z,8.90
2018-01-08T07:21:39.736Z,9.00
2018-01-08T07:24:07.352Z,8.90
2018-01-08T07:26:34.848Z,8.90
2018-01-08T07:29:03.161Z,8.90
2018-01-08T07:31:30.740Z,8.90
2018-01-08T07:33:58.269Z,8.90
2018-01-08T07:36:25.872Z,8.90
2018-01-08T07:38:53.429Z,8.80
2018-01-08T07:41:21.014Z,8.80
2018-01-08T07:43:49.342Z,8.90
2018-01-08T07:46:16.860Z,8.90
2018-01-08T07:48:44.428Z,8.90
2018-01-08T07:51:11.990Z,8.90
2018-01-08T07:53:39.492Z,8.90
2018-01-08T07:56:07.044Z,9.00
2018-01-08T07:58:34.598Z,9.00
2018-01-08T08:01:02.079Z,9.00
2018-01-08T08:03:29.619Z,9.00
2018-01-08T08:05:57.378Z,9.00
2018-01-08T08:08:24.929Z,9.00
2018-01-08T08:10:52.475Z,9.00
2018-01-08T08:13:20.029Z,9.00
2018-01-08T08:15:47.535Z,9.00
2018-01-08T08:18:15.090Z,8.90
2018-01-08T08:20:42.634Z,8.90
2018-01-08T08:23:10.188Z,9.00
2018-01-08T08:25:37.769Z,9.00
2018-01-08T08:28:05.275Z,9.00
2018-01-08T08:30:32.847Z,9.00
2018-01-08T08:33:00.404Z,9.00
2018-01-08T08:35:28.208Z,8.90
2018-01-08T08:37:55.797Z,8.90
2018-01-08T08:40:23.340Z,8.90
2018-01-08T08:42:51.744Z,8.90
2018-01-08T08:45:20.178Z,8.90
2018-01-08T08:47:47.833Z,8.90
2018-01-08T08:50:15.371Z,8.90
2018-01-08T08:52:42.914Z,8.90
2018-01-08T08:55:10.434Z,8.80
2018-01-08T08:57:37.885Z,8.80
2018-01-08T09:00:05.402Z,8.70
2018-01-08T09:02:32.925Z,8.60
2018-01-08T09:05:00.515Z,8.70
2018-01-08T09:07:28.805Z,8.80
2018-01-08T09:09:56.330Z,8.80
2018-01-08T09:12:23.936Z,8.90
2018-01-08T09:14:51.491Z,8.90
2018-01-08T09:17:19.120Z,8.90
2018-01-08T09:19:46.685Z,9.00
2018-01-08T09:22:14.594Z,9.00
2018-01-08T09:24:42.113Z,8.90
2018-01-08T09:27:09.650Z,9.00
2018-01-08T09:29:37.183Z,9.00
2018-01-08T09:32:04.676Z,9.10
2018-01-08T09:34:32.242Z,9.20
2018-01-08T09:37:00.513Z,9.10
2018-01-08T09:39:28.796Z,9.10
2018-01-08T09:41:57.104Z,9.10
2018-01-08T09:44:24.663Z,9.10
2018-01-08T09:46:52.235Z,9.10
2018-01-08T09:49:19.866Z,9.20
2018-01-08T09:51:48.283Z,9.30
2018-01-08T09:54:15.841Z,9.30
2018-01-08T09:56:43.403Z,9.20
2018-01-08T09:59:10.933Z,9.10
2018-01-08T10:01:38.457Z,9.10
2018-01-08T10:04:17.835Z,9.10
2018-01-08T10:06:57.151Z,9.20
2018-01-08T10:09:36.459Z,9.20
2018-01-08T10:12:17.350Z,9.20
2018-01-08T10:14:57.566Z,9.30
2018-01-08T10:17:36.850Z,9.30
2018-01-08T10:20:05.120Z,9.10
2018-01-08T10:22:32.556Z,9.10
2018-01-08T10:25:00.120Z,9.20
2018-01-08T10:27:29.155Z,9.20
2018-01-08T10:29:56.714Z,9.20
2018-01-08T10:32:24.393Z,9.30
2018-01-08T10:34:51.946Z,9.30
2018-01-08T10:37:19.520Z,9.50
2018-01-08T10:39:47.043Z,9.50
2018-01-08T10:42:21.038Z,9.60
2018-01-08T10:44:55.030Z,9.50
2018-01-08T10:47:28.338Z,9.50
2018-01-08T10:50:01.695Z,9.50
2018-01-08T10:52:29.250Z,9.50
2018-01-08T10:55:13.645Z,9.60
2018-01-08T10:57:41.194Z,9.60
2018-01-08T11:00:08.722Z,9.40
2018-01-08T11:02:41.938Z,9.40
2018-01-08T11:05:09.451Z,9.40
2018-01-08T11:07:36.980Z,9.30
2018-01-08T11:10:05.268Z,9.30
2018-01-08T11:12:33.524Z,9.30
2018-01-08T11:15:01.139Z,9.30
2018-01-08T11:17:28.799Z,9.40
2018-01-08T11:19:56.461Z,9.40
2018-01-08T11:22:24.009Z,9.50
2018-01-08T11:24:51.616Z,9.50
2018-01-08T11:27:19.160Z,9.50
2018-01-08T11:29:46.690Z,9.60
2018-01-08T11:32:14.305Z,9.60
2018-01-08T11:34:41.868Z,9.60
2018-01-08T11:37:10.168Z,9.70
2018-01-08T11:39:38.562Z,9.70
2018-01-08T11:42:06.339Z,9.70
2018-01-08T11:44:33.947Z,9.70
2018-01-08T11:47:01.503Z,9.60
2018-01-08T11:49:29.046Z,9.60
2018-01-08T11:51:56.687Z,9.50
2018-01-08T11:54:24.274Z,9.50
2018-01-08T11:56:51.792Z,9.40
2018-01-08T11:59:19.510Z,9.40
2018-01-08T12:01:46.999Z,9.40
2018-01-08T12:04:15.198Z,9.40
2018-01-08T12:06:42.750Z,9.40
2018-01-08T12:09:10.268Z,9.60
2018-01-08T12:11:37.841Z,9.60
2018-01-08T12:14:05.390Z,9.70
2018-01-08T12:16:32.854Z,9.80
2018-01-08T12:19:00.453Z,9.70
2018-01-08T12:21:28.016Z,9.70
2018-01-08T12:23:55.481Z,9.60
2018-01-08T12:26:22.987Z,9.70
2018-01-08T12:28:51.329Z,9.80
2018-01-08T12:31:18.896Z,9.80
2018-01-08T12:33:46.355Z,10.10
2018-01-08T12:36:13.961Z,10.20
2018-01-08T12:38:44.445Z,10.20
2018-01-08T12:41:11.982Z,10.30
2018-01-08T12:43:39.518Z,10.20
2018-01-08T12:46:07.067Z,10.10
2018-01-08T12:48:34.611Z,10.10
2018-01-08T12:51:02.968Z,10.10
2018-01-08T12:53:30.550Z,10.10
2018-01-08T12:55:58.894Z,9.70
2018-01-08T12:58:26.480Z,9.70
2018-01-08T13:00:54.035Z,9.80
2018-01-08T13:03:21.506Z,9.80
2018-01-08T13:05:49.016Z,9.90
2018-01-08T13:08:16.571Z,9.90
2018-01-08T13:10:44.166Z,10.00
2018-01-08T13:13:11.693Z,10.10
2018-01-08T13:15:39.219Z,10.20
2018-01-08T13:18:07.628Z,10.20
2018-01-08T13:20:35.198Z,10.10
2018-01-08T13:23:02.731Z,10.00
2018-01-08T13:25:30.286Z,10.00
2018-01-08T13:27:57.798Z,10.00
2018-01-08T13:30:25.398Z,10.10
2018-01-08T13:32:52.967Z,10.10
2018-01-08T13:35:20.522Z,10.00
2018-01-08T13:37:48.049Z,10.00
2018-01-08T13:40:16.354Z,10.10
2018-01-08T13:42:43.914Z,10.00
2018-01-08T13:45:11.482Z,10.10
2018-01-08T13:47:38.935Z,9.90
2018-01-08T13:50:06.524Z,9.80
2018-01-08T13:52:34.128Z,9.80
2018-01-08T13:55:01.668Z,9.90
2018-01-08T13:57:29.313Z,9.90
2018-01-08T13:59:56.886Z,9.70
2018-01-08T14:02:24.484Z,9.70
2018-01-08T14:04:52.795Z,9.70
2018-01-08T14:07:20.362Z,9.70
2018-01-08T14:09:47.970Z,9.80
2018-01-08T14:12:15.493Z,9.90
2018-01-08T14:14:43.022Z,9.90
2018-01-08T14:17:10.562Z,9.90
2018-01-08T14:19:38.142Z,9.70
2018-01-08T14:22:05.751Z,9.70
2018-01-08T14:24:33.275Z,9.70
2018-01-08T14:27:01.047Z,9.60
2018-01-08T14:29:28.597Z,9.60
2018-01-08T14:31:56.216Z,9.50
2018-01-08T14:34:24.535Z,9.60
2018-01-08T14:36:52.159Z,9.60
2018-01-08T14:39:20.458Z,9.70
2018-01-08T14:41:47.988Z,9.70
2018-01-08T14:44:15.655Z,9.70
2018-01-08T14:46:43.180Z,9.70
2018-01-08T14:49:10.751Z,9.80
2018-01-08T14:51:38.312Z,9.80
2018-01-08T14:54:05.837Z,9.80
2018-01-08T14:56:33.363Z,9.80
2018-01-08T14:59:00.957Z,9.80
2018-01-08T15:01:28.511Z,9.80
2018-01-08T15:03:56.088Z,9.70
2018-01-08T15:06:23.631Z,9.60
2018-01-08T15:08:51.160Z,9.50
2018-01-08T15:11:19.478Z,9.50
2018-01-08T15:13:47.023Z,9.50
2018-01-08T15:16:14.532Z,9.50
2018-01-08T15:18:42.013Z,9.60
2018-01-08T15:21:10.356Z,9.50
2018-01-08T15:23:39.174Z,9.50
2018-01-08T15:26:07.454Z,9.50
2018-01-08T15:28:34.987Z,9.50
2018-01-08T15:31:02.497Z,9.40
2018-01-08T15:33:30.063Z,9.30
2018-01-08T15:35:57.548Z,9.30
2018-01-08T15:38:25.083Z,9.40
2018-01-08T15:40:52.604Z,9.40
2018-01-08T15:43:20.145Z,9.40
2018-01-08T15:45:47.739Z,9.30
2018-01-08T15:48:15.275Z,9.30
2018-01-08T15:50:42.830Z,9.20
2018-01-08T15:53:14.560Z,9.10
2018-01-08T15:55:42.107Z,9.10
2018-01-08T15:58:09.723Z,9.20
2018-01-08T16:00:37.175Z,9.10
2018-01-08T16:03:05.466Z,9.30
2018-01-08T16:05:33.634Z,9.20
2018-01-08T16:08:01.204Z,9.20
2018-01-08T16:10:28.832Z,9.20
2018-01-08T16:12:56.383Z,9.20
2018-01-08T16:15:23.979Z,9.10
2018-01-08T16:17:52.318Z,9.10
2018-01-08T16:20:19.930Z,9.10
2018-01-08T16:22:47.464Z,9.10
2018-01-08T16:25:14.967Z,9.20
2018-01-08T16:27:43.446Z,9.10
2018-01-08T16:30:10.927Z,9.10
2018-01-08T16:32:38.494Z,9.10
2018-01-08T16:35:06.000Z,9.10
2018-01-08T16:37:33.448Z,9.10
2018-01-08T16:40:01.020Z,9.10
2018-01-08T16:42:28.544Z,9.10
2018-01-08T16:44:56.151Z,9.10
2018-01-08T16:47:23.712Z,9.10
2018-01-08T16:49:51.201Z,9.10
2018-01-08T16:52:18.832Z,9.10
2018-01-08T16:54:46.338Z,9.10
2018-01-08T16:57:13.855Z,9.20
2018-01-08T16:59:41.408Z,9.10
2018-01-08T17:02:08.924Z,9.00
2018-01-08T17:04:36.475Z,8.90
2018-01-08T17:07:04.028Z,8.90
2018-01-08T17:09:31.480Z,9.00
2018-01-08T17:11:58.985Z,9.00
2018-01-08T17:14:26.538Z,9.00
2018-01-08T17:16:54.076Z,9.00
2018-01-08T17:19:21.592Z,9.10
2018-01-08T17:21:49.162Z,9.10
2018-01-08T17:24:16.712Z,9.20
2018-01-08T17:26:44.265Z,9.10
2018-01-08T17:29:11.957Z,9.10
2018-01-08T17:31:39.540Z,9.10
2018-01-08T17:34:07.073Z,9.00
2018-01-08T17:36:34.575Z,9.10
2018-01-08T17:39:02.886Z,9.00
2018-01-08T17:41:30.441Z,9.00
2018-01-08T17:43:57.942Z,9.00
2018-01-08T17:46:25.503Z,9.10
2018-01-08T17:48:54.483Z,9.00
2018-01-08T17:51:21.995Z,9.00
2018-01-08T17:53:49.565Z,9.10
2018-01-08T17:56:17.126Z,9.00
2018-01-08T17:58:44.685Z,9.00
2018-01-08T18:01:12.251Z,9.00
2018-01-08T18:03:39.774Z,8.90
2018-01-08T18:06:07.374Z,8.90
2018-01-08T18:08:35.633Z,8.90
2018-01-08T18:11:03.185Z,8.90
2018-01-08T18:13:30.761Z,8.80
2018-01-08T18:15:58.346Z,8.80
2018-01-08T18:18:25.868Z,8.80
2018-01-08T18:20:53.438Z,8.80
2018-01-08T18:23:20.948Z,8.90
2018-01-08T18:25:48.505Z,8.90
2018-01-08T18:28:16.057Z,8.90
2018-01-08T18:30:43.680Z,8.90
2018-01-08T18:33:11.155Z,8.70
2018-01-08T18:35:38.643Z,8.60
2018-01-08T18:38:06.144Z,8.60
2018-01-08T18:40:33.695Z,8.50
2018-01-08T18:43:01.371Z,8.50
2018-01-08T18:45:28.899Z,8.50
2018-01-08T18:47:57.258Z,8.50
2018-01-08T18:50:24.804Z,8.50
2018-01-08T18:52:52.246Z,8.50
2018-01-08T18:55:19.779Z,8.60
2018-01-08T18:57:47.330Z,8.70
2018-01-08T19:00:14.846Z,8.70
2018-01-08T19:02:42.531Z,8.70
2018-01-08T19:05:10.836Z,8.70
2018-01-08T19:07:38.383Z,8.70
2018-01-08T19:10:05.918Z,8.60
2018-01-08T19:12:33.431Z,8.60
2018-01-08T19:15:01.118Z,8.70
2018-01-08T19:17:28.684Z,8.70
2018-01-08T19:19:56.293Z,8.80
2018-01-08T19:22:23.823Z,8.80
2018-01-08T19:24:52.130Z,8.90
2018-01-08T19:27:19.680Z,8.90
2018-01-08T19:29:47.216Z,8.80
2018-01-08T19:32:14.762Z,8.80
2018-01-08T19:34:42.310Z,8.80
2018-01-08T19:37:09.865Z,8.70
2018-01-08T19:39:37.430Z,8.60
2018-01-08T19:42:05.066Z,8.60
2018-01-08T19:44:32.576Z,8.60
2018-01-08T19:47:00.898Z,8.60
2018-01-08T19:49:28.437Z,8.60
2018-01-08T19:51:55.942Z,8.60
2018-01-08T19:54:23.458Z,8.50
2018-01-08T19:56:50.952Z,8.30
2018-01-08T19:59:18.496Z,8.30
2018-01-08T20:01:46.040Z,8.30
2018-01-08T20:04:13.674Z,8.20
2018-01-08T20:06:42.012Z,8.40
2018-01-08T20:09:09.546Z,8.40
2018-01-08T20:11:37.065Z,8.40
2018-01-08T20:14:05.337Z,8.50
2018-01-08T20:16:32.889Z,8.60
2018-01-08T20:19:00.439Z,8.60
2018-01-08T20:21:28.807Z,8.60
2018-01-08T20:23:56.310Z,8.60
2018-01-08T20:26:23.949Z,8.40
2018-01-08T20:28:51.540Z,8.10
2018-01-08T20:31:19.881Z,8.00
2018-01-08T20:33:47.397Z,8.10
2018-01-08T20:36:15.060Z,8.10
2018-01-08T20:38:42.574Z,8.10
2018-01-08T20:41:10.123Z,8.10
2018-01-08T20:43:37.568Z,8.20
2018-01-08T20:46:05.177Z,8.20
2018-01-08T20:48:32.666Z,8.20
2018-01-08T20:51:00.706Z,8.20
2018-01-08T20:53:29.109Z,8.10
2018-01-08T20:55:56.670Z,8.00
2018-01-08T20:58:24.185Z,8.10
2018-01-08T21:00:51.719Z,8.10
2018-01-08T21:03:19.249Z,8.10
2018-01-08T21:05:46.697Z,8.10
2018-01-08T21:08:14.223Z,8.10
2018-01-08T21:10:41.802Z,8.10
2018-01-08T21:13:09.368Z,8.10
2018-01-08T21:15:36.866Z,8.10
2018-01-08T21:18:05.147Z,8.20
2018-01-08T21:20:33.474Z,8.20
2018-01-08T21:23:00.988Z,8.20
2018-01-08T21:25:28.541Z,8.20
2018-01-08T21:27:56.854Z,8.30
2018-01-08T21:30:24.392Z,8.30
2018-01-08T21:32:51.924Z,8.40
2018-01-08T21:35:19.459Z,8.30
2018-01-08T21:37:47.054Z,8.30
2018-01-08T21:40:14.564Z,8.30
2018-01-08T21:42:43.147Z,8.20
2018-01-08T21:45:10.691Z,8.20
2018-01-08T21:47:38.293Z,8.20
2018-01-08T21:50:05.794Z,8.20
2018-01-08T21:52:33.353Z,8.20
2018-01-08T21:55:00.917Z,8.30
2018-01-08T21:57:28.439Z,8.20
2018-01-08T21:59:56.023Z,8.10
2018-01-08T22:02:24.348Z,8.00
2018-01-08T22:04:51.876Z,8.00
2018-01-08T22:07:19.386Z,8.00
2018-01-08T22:09:46.925Z,7.90
2018-01-08T22:12:14.442Z,7.80
2018-01-08T22:14:42.001Z,7.80
2018-01-08T22:17:11.193Z,7.90
2018-01-08T22:19:38.797Z,7.90
2018-01-08T22:22:06.334Z,8.00
2018-01-08T22:24:33.902Z,8.00
2018-01-08T22:27:01.465Z,8.00
2018-01-08T22:29:28.985Z,8.10
2018-01-08T22:31:57.256Z,8.10
2018-01-08T22:34:25.551Z,8.10
2018-01-08T22:36:53.143Z,8.00
2018-01-08T22:39:20.799Z,8.10
2018-01-08T22:41:48.309Z,8.10
2018-01-08T22:44:15.799Z,8.10
2018-01-08T22:46:44.131Z,8.20
2018-01-08T22:49:11.648Z,8.20
2018-01-08T22:51:39.151Z,8.30
2018-01-08T22:54:06.685Z,8.20
2018-01-08T22:56:34.176Z,8.20
2018-01-08T22:59:03.227Z,8.30
2018-01-08T23:01:30.755Z,8.30
2018-01-08T23:03:59.054Z,8.40
2018-01-08T23:06:26.718Z,8.40
2018-01-08T23:08:54.225Z,8.20
2018-01-08T23:11:21.770Z,8.10
2018-01-08T23:13:49.284Z,7.90
2018-01-08T23:16:16.774Z,7.90
2018-01-08T23:18:44.819Z,7.90
2018-01-08T23:21:12.366Z,8.00
2018-01-08T23:23:39.923Z,8.00
2018-01-08T23:26:07.479Z,8.00
2018-01-08T23:28:35.783Z,8.10
2018-01-08T23:31:03.338Z,8.10
2018-01-08T23:33:30.782Z,8.20
2018-01-08T23:35:58.483Z,8.30
2018-01-08T23:38:26.005Z,8.30
2018-01-08T23:40:53.537Z,8.40
2018-01-08T23:43:20.977Z,8.40
2018-01-08T23:45:49.253Z,8.40
2018-01-08T23:48:18.317Z,8.40
2018-01-08T23:50:45.867Z,8.40
2018-01-08T23:53:13.572Z,8.30
2018-01-08T23:55:41.085Z,8.20
2018-01-08T23:58:08.605Z,8.00
